Terminal Aerodrome Forecast
Issued by NWS

Home | Current Version | Previous Version | Text Only | Print | Product List | Glossary On
Versions: 1 2 3 4 5 6 7 8 9 10 11 12 13 14 15 16
956
FTUS43 KAPX 161726
TAFMBL
TAF
KMBL 161726Z 1618/1718 VRB03KT P6SM BKN025 BKN040
     FM162000 VRB03KT P6SM BKN040
     FM170600 12005KT P6SM SCT050 BKN120
     FM171000 13005KT P6SM VCSH BKN025 OVC050 WS020/18035KT
     FM171300 13010KT 4SM SHRA BR OVC010
     FM171700 16010KT 3SM SHRA BR OVC015=

USA.gov is the U.S. government's official web portal to all federal, state and local government web resources and services.